sensor_id;sensor_type;location;lat;lon;timestamp;P1;durP1;ratioP1;P2;durP2;ratioP2
45114;SDS011;30877;43.706;10.780;2023-08-21T00:00:04;8.63;;;6.85;;
45114;SDS011;30877;43.706;10.780;2023-08-21T00:02:33;6.88;;;6.18;;
45114;SDS011;30877;43.706;10.780;2023-08-21T00:05:02;6.85;;;6.20;;
45114;SDS011;30877;43.706;10.780;2023-08-21T00:07:31;6.85;;;6.25;;
45114;SDS011;30877;43.706;10.780;2023-08-21T00:09:59;7.00;;;6.30;;
45114;SDS011;30877;43.706;10.780;2023-08-21T00:12:28;7.55;;;6.95;;
45114;SDS011;30877;43.706;10.780;2023-08-21T00:14:58;7.50;;;6.80;;
45114;SDS011;30877;43.706;10.780;2023-08-21T00:17:27;6.85;;;6.25;;
45114;SDS011;30877;43.706;10.780;2023-08-21T00:19:55;7.50;;;6.72;;
45114;SDS011;30877;43.706;10.780;2023-08-21T00:22:24;7.03;;;6.43;;
45114;SDS011;30877;43.706;10.780;2023-08-21T00:24:52;7.82;;;7.05;;
45114;SDS011;30877;43.706;10.780;2023-08-21T00:27:21;7.13;;;6.53;;
45114;SDS011;30877;43.706;10.780;2023-08-21T00:29:49;7.15;;;6.55;;
45114;SDS011;30877;43.706;10.780;2023-08-21T00:32:19;6.95;;;6.35;;
45114;SDS011;30877;43.706;10.780;2023-08-21T00:34:48;6.22;;;5.72;;
45114;SDS011;30877;43.706;10.780;2023-08-21T00:37:16;7.85;;;6.32;;
45114;SDS011;30877;43.706;10.780;2023-08-21T00:39:44;9.20;;;6.55;;
45114;SDS011;30877;43.706;10.780;2023-08-21T00:42:13;7.63;;;6.22;;
45114;SDS011;30877;43.706;10.780;2023-08-21T00:44:41;6.55;;;6.00;;
45114;SDS011;30877;43.706;10.780;2023-08-21T00:47:09;7.20;;;6.50;;
45114;SDS011;30877;43.706;10.780;2023-08-21T00:49:39;6.82;;;6.22;;
45114;SDS011;30877;43.706;10.780;2023-08-21T00:52:09;7.18;;;6.53;;
45114;SDS011;30877;43.706;10.780;2023-08-21T00:54:39;7.60;;;6.75;;
45114;SDS011;30877;43.706;10.780;2023-08-21T00:57:08;8.00;;;6.57;;
45114;SDS011;30877;43.706;10.780;2023-08-21T00:59:37;7.00;;;6.28;;
45114;SDS011;30877;43.706;10.780;2023-08-21T01:02:06;7.07;;;6.38;;
45114;SDS011;30877;43.706;10.780;2023-08-21T01:04:35;7.03;;;6.32;;
45114;SDS011;30877;43.706;10.780;2023-08-21T01:07:05;6.90;;;6.40;;
45114;SDS011;30877;43.706;10.780;2023-08-21T01:09:39;6.95;;;6.38;;
45114;SDS011;30877;43.706;10.780;2023-08-21T01:12:14;6.97;;;6.38;;
45114;SDS011;30877;43.706;10.780;2023-08-21T01:14:52;6.70;;;6.05;;
45114;SDS011;30877;43.706;10.780;2023-08-21T01:17:26;7.45;;;6.85;;
45114;SDS011;30877;43.706;10.780;2023-08-21T01:19:56;6.93;;;6.32;;
45114;SDS011;30877;43.706;10.780;2023-08-21T01:22:35;7.35;;;6.63;;
45114;SDS011;30877;43.706;10.780;2023-08-21T01:25:06;8.63;;;7.30;;
45114;SDS011;30877;43.706;10.780;2023-08-21T01:27:42;7.35;;;6.75;;
45114;SDS011;30877;43.706;10.780;2023-08-21T01:30:11;6.88;;;6.25;;
45114;SDS011;30877;43.706;10.780;2023-08-21T01:32:45;7.93;;;6.32;;
45114;SDS011;30877;43.706;10.780;2023-08-21T01:35:26;6.97;;;6.37;;
45114;SDS011;30877;43.706;10.780;2023-08-21T01:37:57;7.30;;;6.70;;
45114;SDS011;30877;43.706;10.780;2023-08-21T01:40:28;8.45;;;6.90;;
45114;SDS011;30877;43.706;10.780;2023-08-21T01:42:58;7.38;;;6.68;;
45114;SDS011;30877;43.706;10.780;2023-08-21T01:45:27;7.00;;;6.43;;
45114;SDS011;30877;43.706;10.780;2023-08-21T01:47:55;9.18;;;6.70;;
45114;SDS011;30877;43.706;10.780;2023-08-21T01:50:24;7.80;;;7.05;;
45114;SDS011;30877;43.706;10.780;2023-08-21T01:52:53;7.43;;;6.72;;
45114;SDS011;30877;43.706;10.780;2023-08-21T01:55:22;8.68;;;6.47;;
45114;SDS011;30877;43.706;10.780;2023-08-21T01:57:52;7.60;;;6.85;;
45114;SDS011;30877;43.706;10.780;2023-08-21T02:00:20;7.22;;;6.40;;
45114;SDS011;30877;43.706;10.780;2023-08-21T02:02:49;7.07;;;6.53;;
45114;SDS011;30877;43.706;10.780;2023-08-21T02:05:17;8.15;;;7.00;;
45114;SDS011;30877;43.706;10.780;2023-08-21T02:07:45;7.82;;;7.03;;
45114;SDS011;30877;43.706;10.780;2023-08-21T02:10:14;7.35;;;6.68;;
45114;SDS011;30877;43.706;10.780;2023-08-21T02:12:43;7.78;;;7.15;;
45114;SDS011;30877;43.706;10.780;2023-08-21T02:15:14;7.90;;;7.20;;
45114;SDS011;30877;43.706;10.780;2023-08-21T02:17:43;7.55;;;6.85;;
45114;SDS011;30877;43.706;10.780;2023-08-21T02:20:12;7.72;;;6.85;;
45114;SDS011;30877;43.706;10.780;2023-08-21T02:22:41;9.30;;;7.18;;
45114;SDS011;30877;43.706;10.780;2023-08-21T02:25:09;8.25;;;7.40;;
45114;SDS011;30877;43.706;10.780;2023-08-21T02:27:38;9.68;;;7.40;;
45114;SDS011;30877;43.706;10.780;2023-08-21T02:30:07;8.25;;;7.25;;
45114;SDS011;30877;43.706;10.780;2023-08-21T02:32:37;9.98;;;6.95;;
45114;SDS011;30877;43.706;10.780;2023-08-21T02:35:08;7.18;;;6.57;;
45114;SDS011;30877;43.706;10.780;2023-08-21T02:37:36;7.32;;;6.72;;
45114;SDS011;30877;43.706;10.780;2023-08-21T02:40:06;8.10;;;7.25;;
45114;SDS011;30877;43.706;10.780;2023-08-21T02:42:35;7.85;;;7.25;;
45114;SDS011;30877;43.706;10.780;2023-08-21T02:45:05;7.90;;;7.30;;
45114;SDS011;30877;43.706;10.780;2023-08-21T02:47:38;8.35;;;7.55;;
45114;SDS011;30877;43.706;10.780;2023-08-21T02:50:08;8.82;;;7.03;;
45114;SDS011;30877;43.706;10.780;2023-08-21T02:52:37;7.35;;;6.53;;
45114;SDS011;30877;43.706;10.780;2023-08-21T02:55:07;8.73;;;6.95;;
45114;SDS011;30877;43.706;10.780;2023-08-21T02:57:36;7.75;;;7.00;;
45114;SDS011;30877;43.706;10.780;2023-08-21T03:00:05;7.40;;;6.70;;
45114;SDS011;30877;43.706;10.780;2023-08-21T03:02:40;7.63;;;6.95;;
45114;SDS011;30877;43.706;10.780;2023-08-21T03:05:11;7.70;;;7.10;;
45114;SDS011;30877;43.706;10.780;2023-08-21T03:07:41;7.95;;;7.20;;
45114;SDS011;30877;43.706;10.780;2023-08-21T03:10:10;7.57;;;6.97;;
45114;SDS011;30877;43.706;10.780;2023-08-21T03:12:39;7.88;;;7.20;;
45114;SDS011;30877;43.706;10.780;2023-08-21T03:15:08;7.60;;;7.00;;
45114;SDS011;30877;43.706;10.780;2023-08-21T03:17:36;7.80;;;7.07;;
45114;SDS011;30877;43.706;10.780;2023-08-21T03:20:07;7.80;;;7.00;;
45114;SDS011;30877;43.706;10.780;2023-08-21T03:22:36;8.30;;;7.60;;
45114;SDS011;30877;43.706;10.780;2023-08-21T03:25:05;8.20;;;7.40;;
45114;SDS011;30877;43.706;10.780;2023-08-21T03:27:34;7.95;;;7.20;;
45114;SDS011;30877;43.706;10.780;2023-08-21T03:30:06;8.60;;;7.78;;
45114;SDS011;30877;43.706;10.780;2023-08-21T03:32:37;8.35;;;7.65;;
45114;SDS011;30877;43.706;10.780;2023-08-21T03:35:07;8.13;;;7.43;;
45114;SDS011;30877;43.706;10.780;2023-08-21T03:37:35;8.07;;;7.43;;
45114;SDS011;30877;43.706;10.780;2023-08-21T03:40:06;7.68;;;6.90;;
45114;SDS011;30877;43.706;10.780;2023-08-21T03:42:35;7.38;;;6.75;;
45114;SDS011;30877;43.706;10.780;2023-08-21T03:45:04;8.02;;;7.32;;
45114;SDS011;30877;43.706;10.780;2023-08-21T03:47:33;8.10;;;7.15;;
45114;SDS011;30877;43.706;10.780;2023-08-21T03:50:09;8.48;;;7.68;;
45114;SDS011;30877;43.706;10.780;2023-08-21T03:52:37;8.23;;;7.43;;
45114;SDS011;30877;43.706;10.780;2023-08-21T03:55:08;8.48;;;7.60;;
45114;SDS011;30877;43.706;10.780;2023-08-21T03:57:36;8.80;;;7.50;;
45114;SDS011;30877;43.706;10.780;2023-08-21T04:00:05;8.35;;;7.53;;
45114;SDS011;30877;43.706;10.780;2023-08-21T04:05:11;8.30;;;7.65;;
45114;SDS011;30877;43.706;10.780;2023-08-21T04:07:39;8.77;;;8.00;;
45114;SDS011;30877;43.706;10.780;2023-08-21T04:10:07;8.45;;;7.68;;
45114;SDS011;30877;43.706;10.780;2023-08-21T04:12:36;8.52;;;7.82;;
45114;SDS011;30877;43.706;10.780;2023-08-21T04:15:04;9.27;;;8.27;;
45114;SDS011;30877;43.706;10.780;2023-08-21T04:17:34;9.38;;;8.30;;
45114;SDS011;30877;43.706;10.780;2023-08-21T04:20:03;8.52;;;7.70;;
45114;SDS011;30877;43.706;10.780;2023-08-21T04:22:35;12.40;;;7.65;;
45114;SDS011;30877;43.706;10.780;2023-08-21T04:25:04;8.02;;;7.32;;
45114;SDS011;30877;43.706;10.780;2023-08-21T04:27:34;8.63;;;7.88;;
45114;SDS011;30877;43.706;10.780;2023-08-21T04:30:02;8.57;;;7.78;;
45114;SDS011;30877;43.706;10.780;2023-08-21T04:32:32;8.32;;;7.63;;
45114;SDS011;30877;43.706;10.780;2023-08-21T04:35:00;8.65;;;7.63;;
45114;SDS011;30877;43.706;10.780;2023-08-21T04:37:28;8.50;;;7.80;;
45114;SDS011;30877;43.706;10.780;2023-08-21T04:39:58;8.57;;;7.72;;
45114;SDS011;30877;43.706;10.780;2023-08-21T04:42:26;9.00;;;8.10;;
45114;SDS011;30877;43.706;10.780;2023-08-21T04:44:55;8.57;;;7.72;;
45114;SDS011;30877;43.706;10.780;2023-08-21T04:47:25;9.05;;;8.15;;
45114;SDS011;30877;43.706;10.780;2023-08-21T04:49:57;8.75;;;7.90;;
45114;SDS011;30877;43.706;10.780;2023-08-21T04:52:27;8.57;;;7.82;;
45114;SDS011;30877;43.706;10.780;2023-08-21T04:54:56;9.98;;;8.13;;
45114;SDS011;30877;43.706;10.780;2023-08-21T04:57:27;9.27;;;8.23;;
45114;SDS011;30877;43.706;10.780;2023-08-21T04:59:56;11.07;;;8.48;;
45114;SDS011;30877;43.706;10.780;2023-08-21T05:02:33;9.10;;;8.23;;
45114;SDS011;30877;43.706;10.780;2023-08-21T05:05:02;9.25;;;8.30;;
45114;SDS011;30877;43.706;10.780;2023-08-21T05:07:31;9.25;;;8.45;;
45114;SDS011;30877;43.706;10.780;2023-08-21T05:10:02;8.43;;;7.63;;
45114;SDS011;30877;43.706;10.780;2023-08-21T05:12:33;9.50;;;8.57;;
45114;SDS011;30877;43.706;10.780;2023-08-21T05:15:02;8.75;;;8.00;;
45114;SDS011;30877;43.706;10.780;2023-08-21T05:17:31;8.70;;;7.95;;
45114;SDS011;30877;43.706;10.780;2023-08-21T05:19:59;9.57;;;8.73;;
45114;SDS011;30877;43.706;10.780;2023-08-21T05:22:28;8.90;;;8.00;;
45114;SDS011;30877;43.706;10.780;2023-08-21T05:24:56;8.57;;;7.65;;
45114;SDS011;30877;43.706;10.780;2023-08-21T05:27:26;8.63;;;7.93;;
45114;SDS011;30877;43.706;10.780;2023-08-21T05:29:54;8.75;;;7.95;;
45114;SDS011;30877;43.706;10.780;2023-08-21T05:32:22;8.85;;;7.85;;
45114;SDS011;30877;43.706;10.780;2023-08-21T05:34:51;9.50;;;8.60;;
45114;SDS011;30877;43.706;10.780;2023-08-21T05:37:19;8.93;;;8.13;;
45114;SDS011;30877;43.706;10.780;2023-08-21T05:39:48;9.82;;;8.88;;
45114;SDS011;30877;43.706;10.780;2023-08-21T05:42:17;9.93;;;8.32;;
45114;SDS011;30877;43.706;10.780;2023-08-21T05:44:46;9.23;;;8.18;;
45114;SDS011;30877;43.706;10.780;2023-08-21T05:47:15;9.52;;;8.60;;
45114;SDS011;30877;43.706;10.780;2023-08-21T05:49:44;10.00;;;8.40;;
45114;SDS011;30877;43.706;10.780;2023-08-21T05:52:12;8.68;;;7.88;;
45114;SDS011;30877;43.706;10.780;2023-08-21T05:54:40;11.00;;;8.30;;
45114;SDS011;30877;43.706;10.780;2023-08-21T05:57:08;8.65;;;7.93;;
45114;SDS011;30877;43.706;10.780;2023-08-21T05:59:42;8.98;;;8.25;;
45114;SDS011;30877;43.706;10.780;2023-08-21T06:02:13;8.50;;;7.80;;
45114;SDS011;30877;43.706;10.780;2023-08-21T06:04:42;11.13;;;8.05;;
45114;SDS011;30877;43.706;10.780;2023-08-21T06:07:10;9.50;;;8.32;;
45114;SDS011;30877;43.706;10.780;2023-08-21T06:09:38;8.40;;;7.60;;
45114;SDS011;30877;43.706;10.780;2023-08-21T06:12:08;9.32;;;8.40;;
45114;SDS011;30877;43.706;10.780;2023-08-21T06:14:38;9.93;;;8.82;;
45114;SDS011;30877;43.706;10.780;2023-08-21T06:17:08;8.88;;;8.07;;
45114;SDS011;30877;43.706;10.780;2023-08-21T06:19:39;8.95;;;7.93;;
45114;SDS011;30877;43.706;10.780;2023-08-21T06:22:07;8.60;;;7.80;;
45114;SDS011;30877;43.706;10.780;2023-08-21T06:24:35;8.50;;;7.78;;
45114;SDS011;30877;43.706;10.780;2023-08-21T06:27:07;9.70;;;8.80;;
45114;SDS011;30877;43.706;10.780;2023-08-21T06:29:36;9.48;;;8.52;;
45114;SDS011;30877;43.706;10.780;2023-08-21T06:32:07;9.65;;;8.85;;
45114;SDS011;30877;43.706;10.780;2023-08-21T06:34:36;12.73;;;8.80;;
45114;SDS011;30877;43.706;10.780;2023-08-21T06:37:06;10.75;;;9.65;;
45114;SDS011;30877;43.706;10.780;2023-08-21T06:39:35;9.90;;;8.82;;
45114;SDS011;30877;43.706;10.780;2023-08-21T06:42:03;10.57;;;9.00;;
45114;SDS011;30877;43.706;10.780;2023-08-21T06:44:39;10.27;;;9.30;;
45114;SDS011;30877;43.706;10.780;2023-08-21T06:47:08;9.90;;;8.90;;
45114;SDS011;30877;43.706;10.780;2023-08-21T06:49:36;8.88;;;8.07;;
45114;SDS011;30877;43.706;10.780;2023-08-21T06:52:07;9.35;;;8.55;;
45114;SDS011;30877;43.706;10.780;2023-08-21T06:54:35;9.70;;;8.90;;
45114;SDS011;30877;43.706;10.780;2023-08-21T06:57:03;9.07;;;8.27;;
45114;SDS011;30877;43.706;10.780;2023-08-21T06:59:31;9.15;;;8.27;;
45114;SDS011;30877;43.706;10.780;2023-08-21T07:02:03;9.02;;;8.23;;
45114;SDS011;30877;43.706;10.780;2023-08-21T07:04:31;9.27;;;8.23;;
45114;SDS011;30877;43.706;10.780;2023-08-21T07:07:04;9.10;;;8.30;;
45114;SDS011;30877;43.706;10.780;2023-08-21T07:09:32;9.25;;;8.13;;
45114;SDS011;30877;43.706;10.780;2023-08-21T07:12:00;9.27;;;8.38;;
45114;SDS011;30877;43.706;10.780;2023-08-21T07:14:28;9.88;;;8.30;;
45114;SDS011;30877;43.706;10.780;2023-08-21T07:16:56;8.80;;;7.90;;
45114;SDS011;30877;43.706;10.780;2023-08-21T07:19:24;9.82;;;8.70;;
45114;SDS011;30877;43.706;10.780;2023-08-21T07:21:52;10.75;;;7.70;;
45114;SDS011;30877;43.706;10.780;2023-08-21T07:24:22;9.18;;;8.23;;
45114;SDS011;30877;43.706;10.780;2023-08-21T07:26:50;11.15;;;8.45;;
45114;SDS011;30877;43.706;10.780;2023-08-21T07:29:18;9.27;;;8.07;;
45114;SDS011;30877;43.706;10.780;2023-08-21T07:31:46;8.63;;;7.80;;
45114;SDS011;30877;43.706;10.780;2023-08-21T07:34:14;9.88;;;8.20;;
45114;SDS011;30877;43.706;10.780;2023-08-21T07:36:43;8.65;;;7.85;;
45114;SDS011;30877;43.706;10.780;2023-08-21T07:39:11;10.85;;;8.07;;
45114;SDS011;30877;43.706;10.780;2023-08-21T07:41:41;9.65;;;7.82;;
45114;SDS011;30877;43.706;10.780;2023-08-21T07:44:09;8.68;;;7.80;;
45114;SDS011;30877;43.706;10.780;2023-08-21T07:46:37;8.27;;;7.47;;
45114;SDS011;30877;43.706;10.780;2023-08-21T07:49:05;12.75;;;8.57;;
45114;SDS011;30877;43.706;10.780;2023-08-21T07:51:33;8.55;;;7.75;;
45114;SDS011;30877;43.706;10.780;2023-08-21T07:54:01;9.15;;;8.27;;
45114;SDS011;30877;43.706;10.780;2023-08-21T07:56:29;8.88;;;8.13;;
45114;SDS011;30877;43.706;10.780;2023-08-21T07:58:59;8.98;;;8.18;;
45114;SDS011;30877;43.706;10.780;2023-08-21T08:01:28;11.20;;;8.60;;
45114;SDS011;30877;43.706;10.780;2023-08-21T08:03:56;9.18;;;8.38;;
45114;SDS011;30877;43.706;10.780;2023-08-21T08:06:24;8.65;;;7.80;;
45114;SDS011;30877;43.706;10.780;2023-08-21T08:08:52;10.00;;;9.02;;
45114;SDS011;30877;43.706;10.780;2023-08-21T08:11:20;8.57;;;7.70;;
45114;SDS011;30877;43.706;10.780;2023-08-21T08:13:48;9.60;;;7.70;;
45114;SDS011;30877;43.706;10.780;2023-08-21T08:16:18;8.75;;;7.95;;
45114;SDS011;30877;43.706;10.780;2023-08-21T08:18:46;9.93;;;7.40;;
45114;SDS011;30877;43.706;10.780;2023-08-21T08:21:15;8.82;;;7.85;;
45114;SDS011;30877;43.706;10.780;2023-08-21T08:23:44;8.35;;;7.55;;
45114;SDS011;30877;43.706;10.780;2023-08-21T08:26:12;11.70;;;8.13;;
45114;SDS011;30877;43.706;10.780;2023-08-21T08:28:40;8.13;;;7.32;;
45114;SDS011;30877;43.706;10.780;2023-08-21T08:31:14;8.27;;;6.97;;
45114;SDS011;30877;43.706;10.780;2023-08-21T08:33:43;7.60;;;6.88;;
45114;SDS011;30877;43.706;10.780;2023-08-21T08:36:11;7.97;;;7.18;;
45114;SDS011;30877;43.706;10.780;2023-08-21T08:38:39;9.85;;;7.43;;
45114;SDS011;30877;43.706;10.780;2023-08-21T08:41:10;8.18;;;7.30;;
45114;SDS011;30877;43.706;10.780;2023-08-21T08:43:55;6.97;;;6.38;;
45114;SDS011;30877;43.706;10.780;2023-08-21T08:46:25;7.25;;;6.45;;
45114;SDS011;30877;43.706;10.780;2023-08-21T08:48:57;8.43;;;6.68;;
45114;SDS011;30877;43.706;10.780;2023-08-21T08:51:28;6.80;;;6.10;;
45114;SDS011;30877;43.706;10.780;2023-08-21T08:53:57;6.82;;;6.22;;
45114;SDS011;30877;43.706;10.780;2023-08-21T08:56:26;7.35;;;6.65;;
45114;SDS011;30877;43.706;10.780;2023-08-21T08:58:54;7.15;;;6.47;;
45114;SDS011;30877;43.706;10.780;2023-08-21T09:01:22;7.10;;;6.50;;
45114;SDS011;30877;43.706;10.780;2023-08-21T09:03:50;11.30;;;7.00;;
45114;SDS011;30877;43.706;10.780;2023-08-21T09:06:19;7.68;;;6.97;;
45114;SDS011;30877;43.706;10.780;2023-08-21T09:08:53;7.57;;;6.70;;
45114;SDS011;30877;43.706;10.780;2023-08-21T09:11:22;9.77;;;6.57;;
45114;SDS011;30877;43.706;10.780;2023-08-21T09:13:50;7.82;;;7.13;;
45114;SDS011;30877;43.706;10.780;2023-08-21T09:16:19;7.65;;;6.97;;
45114;SDS011;30877;43.706;10.780;2023-08-21T09:18:48;8.57;;;6.72;;
45114;SDS011;30877;43.706;10.780;2023-08-21T09:21:16;7.85;;;6.95;;
45114;SDS011;30877;43.706;10.780;2023-08-21T09:23:46;6.97;;;6.35;;
45114;SDS011;30877;43.706;10.780;2023-08-21T09:26:18;7.15;;;6.18;;
45114;SDS011;30877;43.706;10.780;2023-08-21T09:28:49;8.48;;;6.88;;
45114;SDS011;30877;43.706;10.780;2023-08-21T09:31:21;7.47;;;6.75;;
45114;SDS011;30877;43.706;10.780;2023-08-21T09:33:57;6.88;;;6.38;;
45114;SDS011;30877;43.706;10.780;2023-08-21T09:36:26;6.63;;;5.97;;
45114;SDS011;30877;43.706;10.780;2023-08-21T09:38:55;5.70;;;5.20;;
45114;SDS011;30877;43.706;10.780;2023-08-21T09:41:23;8.05;;;5.53;;
45114;SDS011;30877;43.706;10.780;2023-08-21T09:43:52;5.82;;;5.25;;
45114;SDS011;30877;43.706;10.780;2023-08-21T09:46:26;6.18;;;4.78;;
45114;SDS011;30877;43.706;10.780;2023-08-21T09:48:55;6.80;;;5.45;;
45114;SDS011;30877;43.706;10.780;2023-08-21T09:51:23;6.40;;;5.63;;
45114;SDS011;30877;43.706;10.780;2023-08-21T09:53:54;7.45;;;5.20;;
45114;SDS011;30877;43.706;10.780;2023-08-21T09:56:24;6.63;;;5.32;;
45114;SDS011;30877;43.706;10.780;2023-08-21T09:58:53;5.28;;;4.65;;
45114;SDS011;30877;43.706;10.780;2023-08-21T10:01:21;6.47;;;4.80;;
45114;SDS011;30877;43.706;10.780;2023-08-21T10:03:51;7.10;;;4.82;;
45114;SDS011;30877;43.706;10.780;2023-08-21T10:06:23;6.53;;;4.70;;
45114;SDS011;30877;43.706;10.780;2023-08-21T10:08:53;5.38;;;4.50;;
45114;SDS011;30877;43.706;10.780;2023-08-21T10:11:23;4.90;;;4.50;;
45114;SDS011;30877;43.706;10.780;2023-08-21T10:13:51;5.00;;;4.50;;
45114;SDS011;30877;43.706;10.780;2023-08-21T10:16:19;6.35;;;4.45;;
45114;SDS011;30877;43.706;10.780;2023-08-21T10:18:49;4.45;;;3.97;;
45114;SDS011;30877;43.706;10.780;2023-08-21T10:21:19;9.63;;;4.53;;
45114;SDS011;30877;43.706;10.780;2023-08-21T10:23:48;4.05;;;3.72;;
45114;SDS011;30877;43.706;10.780;2023-08-21T10:26:18;5.28;;;4.15;;
45114;SDS011;30877;43.706;10.780;2023-08-21T10:28:52;4.47;;;3.90;;
45114;SDS011;30877;43.706;10.780;2023-08-21T10:31:31;9.32;;;3.83;;
45114;SDS011;30877;43.706;10.780;2023-08-21T10:34:02;4.45;;;4.05;;
45114;SDS011;30877;43.706;10.780;2023-08-21T10:39:37;6.15;;;3.90;;
45114;SDS011;30877;43.706;10.780;2023-08-21T10:42:08;5.53;;;3.85;;
45114;SDS011;30877;43.706;10.780;2023-08-21T10:44:49;4.35;;;3.95;;
45114;SDS011;30877;43.706;10.780;2023-08-21T10:47:20;4.57;;;3.70;;
45114;SDS011;30877;43.706;10.780;2023-08-21T10:49:51;5.15;;;3.78;;
45114;SDS011;30877;43.706;10.780;2023-08-21T10:52:21;4.00;;;3.50;;
45114;SDS011;30877;43.706;10.780;2023-08-21T10:54:51;5.90;;;4.25;;
45114;SDS011;30877;43.706;10.780;2023-08-21T10:57:19;3.42;;;3.13;;
45114;SDS011;30877;43.706;10.780;2023-08-21T10:59:50;4.07;;;3.70;;
45114;SDS011;30877;43.706;10.780;2023-08-21T11:02:23;4.78;;;3.67;;
45114;SDS011;30877;43.706;10.780;2023-08-21T11:04:51;4.30;;;3.90;;
45114;SDS011;30877;43.706;10.780;2023-08-21T11:07:20;5.68;;;3.28;;
45114;SDS011;30877;43.706;10.780;2023-08-21T11:09:48;4.72;;;3.55;;
45114;SDS011;30877;43.706;10.780;2023-08-21T11:12:18;7.78;;;4.10;;
45114;SDS011;30877;43.706;10.780;2023-08-21T11:14:47;4.50;;;3.95;;
45114;SDS011;30877;43.706;10.780;2023-08-21T11:17:17;7.10;;;4.20;;
45114;SDS011;30877;43.706;10.780;2023-08-21T11:19:50;4.65;;;3.22;;
45114;SDS011;30877;43.706;10.780;2023-08-21T11:22:19;4.70;;;3.97;;
45114;SDS011;30877;43.706;10.780;2023-08-21T11:24:47;4.22;;;3.85;;
45114;SDS011;30877;43.706;10.780;2023-08-21T11:27:16;4.40;;;4.00;;
45114;SDS011;30877;43.706;10.780;2023-08-21T11:29:46;5.35;;;3.78;;
45114;SDS011;30877;43.706;10.780;2023-08-21T11:32:17;4.07;;;3.78;;
45114;SDS011;30877;43.706;10.780;2023-08-21T11:34:50;4.45;;;3.97;;
45114;SDS011;30877;43.706;10.780;2023-08-21T11:37:19;6.18;;;4.22;;
45114;SDS011;30877;43.706;10.780;2023-08-21T11:39:49;4.25;;;3.85;;
45114;SDS011;30877;43.706;10.780;2023-08-21T11:42:21;6.95;;;3.95;;
45114;SDS011;30877;43.706;10.780;2023-08-21T11:44:56;4.20;;;3.90;;
45114;SDS011;30877;43.706;10.780;2023-08-21T11:47:30;4.78;;;4.40;;
45114;SDS011;30877;43.706;10.780;2023-08-21T11:50:02;4.45;;;3.92;;
45114;SDS011;30877;43.706;10.780;2023-08-21T11:52:31;4.15;;;3.80;;
45114;SDS011;30877;43.706;10.780;2023-08-21T11:55:00;4.53;;;4.15;;
45114;SDS011;30877;43.706;10.780;2023-08-21T11:57:28;4.90;;;3.78;;
45114;SDS011;30877;43.706;10.780;2023-08-21T11:59:57;5.05;;;3.70;;
45114;SDS011;30877;43.706;10.780;2023-08-21T12:02:25;5.70;;;3.72;;
45114;SDS011;30877;43.706;10.780;2023-08-21T12:05:00;5.07;;;3.80;;
45114;SDS011;30877;43.706;10.780;2023-08-21T12:07:30;4.78;;;4.38;;
45114;SDS011;30877;43.706;10.780;2023-08-21T12:09:58;4.13;;;3.70;;
45114;SDS011;30877;43.706;10.780;2023-08-21T12:12:26;4.47;;;4.03;;
45114;SDS011;30877;43.706;10.780;2023-08-21T12:14:54;6.07;;;3.88;;
45114;SDS011;30877;43.706;10.780;2023-08-21T12:17:22;4.63;;;4.22;;
45114;SDS011;30877;43.706;10.780;2023-08-21T12:19:52;6.20;;;4.18;;
45114;SDS011;30877;43.706;10.780;2023-08-21T12:22:20;4.05;;;3.75;;
45114;SDS011;30877;43.706;10.780;2023-08-21T12:24:48;4.35;;;3.90;;
45114;SDS011;30877;43.706;10.780;2023-08-21T12:27:16;4.50;;;4.10;;
45114;SDS011;30877;43.706;10.780;2023-08-21T12:29:44;5.50;;;4.20;;
45114;SDS011;30877;43.706;10.780;2023-08-21T12:32:14;4.35;;;3.95;;
45114;SDS011;30877;43.706;10.780;2023-08-21T12:34:42;3.80;;;3.50;;
45114;SDS011;30877;43.706;10.780;2023-08-21T12:37:12;4.28;;;3.50;;
45114;SDS011;30877;43.706;10.780;2023-08-21T12:39:42;4.00;;;3.60;;
45114;SDS011;30877;43.706;10.780;2023-08-21T12:42:10;5.72;;;3.80;;
45114;SDS011;30877;43.706;10.780;2023-08-21T12:44:38;6.85;;;3.72;;
45114;SDS011;30877;43.706;10.780;2023-08-21T12:47:07;5.53;;;3.97;;
45114;SDS011;30877;43.706;10.780;2023-08-21T12:49:35;4.75;;;4.22;;
45114;SDS011;30877;43.706;10.780;2023-08-21T12:52:03;3.85;;;3.58;;
45114;SDS011;30877;43.706;10.780;2023-08-21T12:54:38;4.35;;;4.05;;
45114;SDS011;30877;43.706;10.780;2023-08-21T12:57:06;4.10;;;3.80;;
45114;SDS011;30877;43.706;10.780;2023-08-21T12:59:35;4.20;;;3.80;;
45114;SDS011;30877;43.706;10.780;2023-08-21T13:02:03;4.95;;;3.90;;
45114;SDS011;30877;43.706;10.780;2023-08-21T13:04:32;4.45;;;3.95;;
45114;SDS011;30877;43.706;10.780;2023-08-21T13:07:00;4.10;;;3.80;;
45114;SDS011;30877;43.706;10.780;2023-08-21T13:09:30;7.85;;;3.97;;
45114;SDS011;30877;43.706;10.780;2023-08-21T13:12:00;5.38;;;4.25;;
45114;SDS011;30877;43.706;10.780;2023-08-21T13:14:28;3.90;;;3.60;;
45114;SDS011;30877;43.706;10.780;2023-08-21T13:16:58;4.45;;;3.38;;
45114;SDS011;30877;43.706;10.780;2023-08-21T13:19:26;3.65;;;3.35;;
45114;SDS011;30877;43.706;10.780;2023-08-21T13:21:54;3.78;;;3.47;;
45114;SDS011;30877;43.706;10.780;2023-08-21T13:24:22;4.28;;;3.70;;
45114;SDS011;30877;43.706;10.780;2023-08-21T13:26:50;4.20;;;3.40;;
45114;SDS011;30877;43.706;10.780;2023-08-21T13:29:20;4.03;;;3.55;;
45114;SDS011;30877;43.706;10.780;2023-08-21T13:31:48;4.50;;;3.80;;
45114;SDS011;30877;43.706;10.780;2023-08-21T13:34:16;6.22;;;3.80;;
45114;SDS011;30877;43.706;10.780;2023-08-21T13:36:45;3.92;;;3.53;;
45114;SDS011;30877;43.706;10.780;2023-08-21T13:39:13;4.03;;;3.55;;
45114;SDS011;30877;43.706;10.780;2023-08-21T13:41:42;4.50;;;3.92;;
45114;SDS011;30877;43.706;10.780;2023-08-21T13:44:10;5.65;;;3.53;;
45114;SDS011;30877;43.706;10.780;2023-08-21T13:46:40;3.83;;;3.50;;
45114;SDS011;30877;43.706;10.780;2023-08-21T13:49:08;4.20;;;3.80;;
45114;SDS011;30877;43.706;10.780;2023-08-21T13:51:36;6.10;;;4.35;;
45114;SDS011;30877;43.706;10.780;2023-08-21T13:54:04;6.13;;;4.28;;
45114;SDS011;30877;43.706;10.780;2023-08-21T13:56:34;4.38;;;3.83;;
45114;SDS011;30877;43.706;10.780;2023-08-21T13:59:02;6.82;;;3.95;;
45114;SDS011;30877;43.706;10.780;2023-08-21T14:01:30;6.03;;;4.00;;
45114;SDS011;30877;43.706;10.780;2023-08-21T14:03:59;9.10;;;3.90;;
45114;SDS011;30877;43.706;10.780;2023-08-21T14:06:30;5.25;;;3.92;;
45114;SDS011;30877;43.706;10.780;2023-08-21T14:08:58;6.32;;;4.03;;
45114;SDS011;30877;43.706;10.780;2023-08-21T14:11:26;6.18;;;4.20;;
45114;SDS011;30877;43.706;10.780;2023-08-21T14:13:54;4.75;;;4.20;;
45114;SDS011;30877;43.706;10.780;2023-08-21T14:16:22;4.43;;;4.13;;
45114;SDS011;30877;43.706;10.780;2023-08-21T14:18:50;4.03;;;3.60;;
45114;SDS011;30877;43.706;10.780;2023-08-21T14:21:21;4.55;;;4.13;;
45114;SDS011;30877;43.706;10.780;2023-08-21T14:23:49;4.25;;;3.85;;
45114;SDS011;30877;43.706;10.780;2023-08-21T14:26:17;4.35;;;4.05;;
45114;SDS011;30877;43.706;10.780;2023-08-21T14:28:45;6.25;;;4.43;;
45114;SDS011;30877;43.706;10.780;2023-08-21T14:31:17;5.78;;;4.53;;
45114;SDS011;30877;43.706;10.780;2023-08-21T14:33:45;4.55;;;4.20;;
45114;SDS011;30877;43.706;10.780;2023-08-21T14:36:13;5.32;;;4.68;;
45114;SDS011;30877;43.706;10.780;2023-08-21T14:38:43;5.82;;;4.25;;
45114;SDS011;30877;43.706;10.780;2023-08-21T14:41:11;4.75;;;4.25;;
45114;SDS011;30877;43.706;10.780;2023-08-21T14:43:39;4.88;;;3.92;;
45114;SDS011;30877;43.706;10.780;2023-08-21T14:46:07;4.68;;;3.80;;
45114;SDS011;30877;43.706;10.780;2023-08-21T14:48:35;5.55;;;4.20;;
45114;SDS011;30877;43.706;10.780;2023-08-21T14:51:08;4.53;;;4.22;;